Terminal Aerodrome Forecast
Issued by NWS Jackson, MS

Home | Current Version | Previous Version | Text Only | Print | Product List | Glossary On
Versions: 1 2 3 4 5 6 7 8 9 10 11 12 13 14
534
FTUS44 KJAN 271151
TAFGWO
TAF
KGWO 271151Z 2712/2812 18009KT P6SM SCT025 BKN040
     FM271600 19014KT P6SM OVC025
     FM271800 20013G20KT P6SM VCTS BKN035CB
     FM272100 20011KT P6SM TSRA BKN050CB
     FM280800 23004KT 5SM BR VCSH OVC009=

USA.gov is the U.S. government's official web portal to all federal, state and local government web resources and services.